createdAt,value
2023-01-06T00:00:11.329Z,5.93
2023-01-06T00:02:39.594Z,6.10
2023-01-06T00:05:08.399Z,6.73
2023-01-06T00:07:38.121Z,6.13
2023-01-06T00:10:06.729Z,7.43
2023-01-06T00:12:35.031Z,4.90
2023-01-06T00:15:04.461Z,6.57
2023-01-06T00:17:32.855Z,4.43
2023-01-06T00:20:01.003Z,7.20
2023-01-06T00:22:28.834Z,7.60
2023-01-06T00:24:58.194Z,7.07
2023-01-06T00:27:26.271Z,5.43
2023-01-06T00:29:57.765Z,6.13
2023-01-06T00:32:26.262Z,7.13
2023-01-06T00:34:55.282Z,9.13
2023-01-06T00:37:23.948Z,7.07
2023-01-06T00:39:52.845Z,7.70
2023-01-06T00:42:22.940Z,9.87
2023-01-06T00:44:52.191Z,5.07
2023-01-06T00:47:21.190Z,5.60
2023-01-06T00:49:49.307Z,5.93
2023-01-06T00:52:17.541Z,4.57
2023-01-06T00:54:45.712Z,5.20
2023-01-06T00:57:15.039Z,6.90
2023-01-06T00:59:44.543Z,7.10
2023-01-06T01:02:13.651Z,4.77
2023-01-06T01:04:41.954Z,8.40
2023-01-06T01:07:11.409Z,7.50
2023-01-06T01:09:41.388Z,7.13
2023-01-06T01:12:14.175Z,6.87
2023-01-06T01:14:47.097Z,5.03
2023-01-06T01:17:17.132Z,6.70
2023-01-06T01:19:45.092Z,6.37
2023-01-06T01:22:13.513Z,6.83
2023-01-06T01:24:43.844Z,6.40
2023-01-06T01:27:14.131Z,5.73
2023-01-06T01:29:42.132Z,4.87
2023-01-06T01:32:11.700Z,4.10
2023-01-06T01:34:39.957Z,4.03
2023-01-06T01:37:08.023Z,5.73
2023-01-06T01:39:36.041Z,5.73
2023-01-06T01:42:05.677Z,5.30
2023-01-06T01:45:07.554Z,6.30
2023-01-06T01:47:44.562Z,7.17
2023-01-06T01:50:18.728Z,6.47
2023-01-06T01:52:48.843Z,4.20
2023-01-06T01:55:18.349Z,6.33
2023-01-06T01:57:50.233Z,3.73
2023-01-06T02:00:19.409Z,6.67
2023-01-06T02:02:48.920Z,4.33
2023-01-06T02:05:20.502Z,5.17
2023-01-06T02:07:49.598Z,5.40
2023-01-06T02:10:21.235Z,5.17
2023-01-06T02:12:53.752Z,5.37
2023-01-06T02:15:23.882Z,5.67
2023-01-06T02:18:27.989Z,5.77
2023-01-06T02:21:11.197Z,3.03
2023-01-06T02:24:45.459Z,4.47
2023-01-06T02:27:47.700Z,5.20
2023-01-06T02:30:46.995Z,3.00
2023-01-06T02:33:22.829Z,4.17
2023-01-06T02:36:01.489Z,6.20
2023-01-06T02:38:50.526Z,6.07
2023-01-06T02:41:29.155Z,3.53
2023-01-06T02:44:03.857Z,5.50
2023-01-06T02:46:58.465Z,2.97
2023-01-06T02:49:33.389Z,4.00
2023-01-06T02:52:05.844Z,4.83
2023-01-06T02:54:51.464Z,4.90
2023-01-06T02:57:27.083Z,4.53
2023-01-06T03:00:06.459Z,4.83
2023-01-06T03:02:35.409Z,4.07
2023-01-06T03:05:06.957Z,2.77
2023-01-06T03:07:36.000Z,3.57
2023-01-06T03:10:05.584Z,4.37
2023-01-06T03:12:41.236Z,4.87
2023-01-06T03:15:10.489Z,4.67
2023-01-06T03:17:38.828Z,2.77
2023-01-06T03:20:10.583Z,4.23
2023-01-06T03:22:40.147Z,3.67
2023-01-06T03:25:10.269Z,5.43
2023-01-06T03:27:39.894Z,3.67
2023-01-06T03:30:11.719Z,4.80
2023-01-06T03:32:48.023Z,3.70
2023-01-06T03:35:46.450Z,3.20
2023-01-06T03:38:23.808Z,4.20
2023-01-06T03:40:56.285Z,4.50
2023-01-06T03:43:27.840Z,4.17
2023-01-06T03:45:59.154Z,2.40
2023-01-06T03:48:38.898Z,2.60
2023-01-06T03:51:12.202Z,3.67
2023-01-06T03:53:47.907Z,5.93
2023-01-06T03:56:20.082Z,3.27
2023-01-06T03:58:51.913Z,3.67
2023-01-06T04:01:20.467Z,4.03
2023-01-06T04:03:49.424Z,3.50
2023-01-06T04:06:19.141Z,3.37
2023-01-06T04:08:49.476Z,3.67
2023-01-06T04:11:32.222Z,4.27
2023-01-06T04:14:01.081Z,4.20
2023-01-06T04:16:30.079Z,3.07
2023-01-06T04:18:59.124Z,4.37
2023-01-06T04:21:29.057Z,4.20
2023-01-06T04:23:59.241Z,3.00
2023-01-06T04:26:27.218Z,4.80
2023-01-06T04:28:55.653Z,4.20
2023-01-06T04:31:27.746Z,5.77
2023-01-06T04:33:56.946Z,3.00
2023-01-06T04:36:26.997Z,3.67
2023-01-06T04:38:58.377Z,4.90
2023-01-06T04:41:26.239Z,5.00
2023-01-06T04:43:55.978Z,3.87
2023-01-06T04:46:25.574Z,4.73
2023-01-06T04:48:53.819Z,4.77
2023-01-06T04:51:21.904Z,4.43
2023-01-06T04:53:50.840Z,5.47
2023-01-06T04:56:20.529Z,4.43
2023-01-06T04:58:48.741Z,2.97
2023-01-06T05:01:17.567Z,5.80
2023-01-06T05:03:45.982Z,4.33
2023-01-06T05:06:15.731Z,4.30
2023-01-06T05:08:44.801Z,5.07
2023-01-06T05:11:15.114Z,5.63
2023-01-06T05:13:44.570Z,7.20
2023-01-06T05:16:14.092Z,4.57
2023-01-06T05:18:42.144Z,3.70
2023-01-06T05:21:10.100Z,4.33
2023-01-06T05:23:38.681Z,4.30
2023-01-06T05:26:08.979Z,6.03
2023-01-06T05:28:37.202Z,2.40
2023-01-06T05:31:07.060Z,4.23
2023-01-06T05:33:36.312Z,3.80
2023-01-06T05:36:07.988Z,4.77
2023-01-06T05:38:35.973Z,5.30
2023-01-06T05:41:04.371Z,5.03
2023-01-06T05:43:34.873Z,4.43
2023-01-06T05:46:07.875Z,5.03
2023-01-06T05:48:36.111Z,5.53
2023-01-06T05:51:05.172Z,3.70
2023-01-06T05:53:33.764Z,6.30
2023-01-06T05:56:03.279Z,3.80
2023-01-06T05:58:33.408Z,5.90
2023-01-06T06:01:01.776Z,5.60
2023-01-06T06:03:31.413Z,6.10
2023-01-06T06:06:07.701Z,8.77
2023-01-06T06:08:35.744Z,8.80
2023-01-06T06:11:05.243Z,6.23
2023-01-06T06:13:34.143Z,3.87
2023-01-06T06:16:08.454Z,5.70
2023-01-06T06:18:43.659Z,6.67
2023-01-06T06:21:12.893Z,6.70
2023-01-06T06:23:41.288Z,6.17
2023-01-06T06:26:10.719Z,8.47
2023-01-06T06:28:39.503Z,6.27
2023-01-06T06:31:08.565Z,6.03
2023-01-06T06:33:38.064Z,5.63
2023-01-06T06:36:11.740Z,5.13
2023-01-06T06:38:42.284Z,7.27
2023-01-06T06:41:11.316Z,8.10
2023-01-06T06:43:40.084Z,7.93
2023-01-06T06:46:09.416Z,10.17
2023-01-06T06:48:38.903Z,9.00
2023-01-06T06:51:10.926Z,13.17
2023-01-06T06:53:40.900Z,10.30
2023-01-06T06:56:10.818Z,15.17
2023-01-06T06:58:40.120Z,11.20
2023-01-06T07:01:13.340Z,11.17
2023-01-06T07:03:43.093Z,13.20
2023-01-06T07:06:12.940Z,13.73
2023-01-06T07:08:44.252Z,12.50
2023-01-06T07:11:12.686Z,9.00
2023-01-06T07:13:40.680Z,13.33
2023-01-06T07:16:09.526Z,17.30
2023-01-06T07:18:37.812Z,9.13
2023-01-06T07:21:08.095Z,13.50
2023-01-06T07:23:36.748Z,8.97
2023-01-06T07:26:05.493Z,8.97
2023-01-06T07:28:34.217Z,9.60
2023-01-06T07:31:03.925Z,11.00
2023-01-06T07:33:31.961Z,11.33
2023-01-06T07:36:02.025Z,9.30
2023-01-06T07:38:32.198Z,9.37
2023-01-06T07:41:02.070Z,7.33
2023-01-06T07:43:30.774Z,11.20
2023-01-06T07:45:58.993Z,11.20
2023-01-06T07:48:27.365Z,12.07
2023-01-06T07:50:56.566Z,9.33
2023-01-06T07:53:25.392Z,9.90
2023-01-06T07:55:56.211Z,10.57
2023-01-06T07:58:24.939Z,13.03
2023-01-06T08:00:53.016Z,12.67
2023-01-06T08:03:21.900Z,11.60
2023-01-06T08:05:50.985Z,12.23
2023-01-06T08:08:19.243Z,11.97
2023-01-06T08:10:47.447Z,10.43
2023-01-06T08:13:21.061Z,14.40
2023-01-06T08:15:52.164Z,12.67
2023-01-06T08:18:20.714Z,10.13
2023-01-06T08:20:48.906Z,12.03
2023-01-06T08:23:16.994Z,10.97
2023-01-06T08:25:45.193Z,12.07
2023-01-06T08:28:13.568Z,16.77
2023-01-06T08:30:43.983Z,11.67
2023-01-06T08:33:12.087Z,16.33
2023-01-06T08:35:40.522Z,11.50
2023-01-06T08:38:10.041Z,18.93
2023-01-06T08:40:38.285Z,14.33
2023-01-06T08:43:09.647Z,13.30
2023-01-06T08:45:39.623Z,19.37
2023-01-06T08:48:09.441Z,14.27
2023-01-06T08:50:40.597Z,14.03
2023-01-06T08:53:08.917Z,18.77
2023-01-06T08:55:40.451Z,17.77
2023-01-06T08:58:11.920Z,16.03
2023-01-06T09:00:42.873Z,17.07
2023-01-06T09:03:14.143Z,16.77
2023-01-06T09:05:42.300Z,15.80
2023-01-06T09:08:10.674Z,16.70
2023-01-06T09:10:39.198Z,15.40
2023-01-06T09:13:07.206Z,18.83
2023-01-06T09:15:35.635Z,17.57
2023-01-06T09:18:03.662Z,21.63
2023-01-06T09:20:34.571Z,27.53
2023-01-06T09:23:02.767Z,23.50
2023-01-06T09:25:30.973Z,21.20
2023-01-06T09:27:59.900Z,18.97
2023-01-06T09:30:28.200Z,19.90
2023-01-06T09:32:56.474Z,27.17
2023-01-06T09:35:25.423Z,60.80
2023-01-06T09:37:55.102Z,27.47
2023-01-06T09:40:27.495Z,34.80
2023-01-06T09:43:05.567Z,31.43
2023-01-06T09:45:39.770Z,19.17
2023-01-06T09:48:11.967Z,18.33
2023-01-06T09:50:42.943Z,22.10
2023-01-06T09:53:17.087Z,19.03
2023-01-06T09:55:48.556Z,16.57
2023-01-06T09:58:18.531Z,20.47
2023-01-06T10:00:48.590Z,20.07
2023-01-06T10:03:18.598Z,17.57
2023-01-06T10:06:04.043Z,21.97
2023-01-06T10:08:39.625Z,19.50
2023-01-06T10:11:13.123Z,23.27
2023-01-06T10:13:51.318Z,21.77
2023-01-06T10:16:28.515Z,19.10
2023-01-06T10:19:00.508Z,15.93
2023-01-06T10:21:32.599Z,18.97
2023-01-06T10:24:16.888Z,16.73
2023-01-06T10:26:46.806Z,14.87
2023-01-06T10:29:18.545Z,17.10
2023-01-06T10:31:49.424Z,16.80
2023-01-06T10:34:23.820Z,22.67
2023-01-06T10:36:57.261Z,18.73
2023-01-06T10:39:27.879Z,17.97
2023-01-06T10:42:16.668Z,23.97
2023-01-06T10:44:44.658Z,14.83
2023-01-06T10:47:16.367Z,20.43
2023-01-06T10:49:44.417Z,15.10
2023-01-06T10:52:13.875Z,18.57
2023-01-06T10:54:43.797Z,20.57
2023-01-06T10:57:18.862Z,15.63
2023-01-06T11:00:10.300Z,15.40
2023-01-06T11:02:43.470Z,17.47
2023-01-06T11:05:15.034Z,19.00
2023-01-06T11:07:51.898Z,14.57
2023-01-06T11:10:33.250Z,13.90
2023-01-06T11:13:02.362Z,16.13
2023-01-06T11:15:37.046Z,14.77
2023-01-06T11:18:05.942Z,14.27
2023-01-06T11:20:36.311Z,15.40
2023-01-06T11:23:15.960Z,14.37
2023-01-06T11:25:46.100Z,13.30
2023-01-06T11:28:19.690Z,14.13
2023-01-06T11:30:52.846Z,14.47
2023-01-06T11:33:23.027Z,13.40
2023-01-06T11:35:51.740Z,16.80
2023-01-06T11:38:21.544Z,13.03
2023-01-06T11:40:52.563Z,14.37
2023-01-06T11:43:25.825Z,13.93
2023-01-06T11:45:57.271Z,15.80
2023-01-06T11:48:30.540Z,14.00
2023-01-06T11:51:00.323Z,15.33
2023-01-06T11:53:29.524Z,15.97
2023-01-06T11:56:02.247Z,39.13
2023-01-06T11:58:43.267Z,15.57
2023-01-06T12:01:17.671Z,16.40
2023-01-06T12:03:48.826Z,12.80
2023-01-06T12:06:25.470Z,12.73
2023-01-06T12:08:59.617Z,12.10
2023-01-06T12:11:37.205Z,19.53
2023-01-06T12:14:19.654Z,15.67
2023-01-06T12:17:00.250Z,12.40
2023-01-06T12:19:34.639Z,39.23
2023-01-06T12:22:03.190Z,17.03
2023-01-06T12:24:33.513Z,24.73
2023-01-06T12:27:04.905Z,19.93
2023-01-06T12:29:34.440Z,45.33
2023-01-06T12:32:09.948Z,33.07
2023-01-06T12:34:40.670Z,14.47
2023-01-06T12:37:18.047Z,24.83
2023-01-06T12:39:54.524Z,41.10
2023-01-06T12:42:29.724Z,19.37
2023-01-06T12:45:02.439Z,17.17
2023-01-06T12:47:36.294Z,24.93
2023-01-06T12:50:08.370Z,14.47
2023-01-06T12:52:40.657Z,16.00
2023-01-06T12:55:14.215Z,22.80
2023-01-06T12:57:52.815Z,18.10
2023-01-06T13:00:36.245Z,13.37
2023-01-06T13:03:25.281Z,10.77
2023-01-06T13:06:04.133Z,8.63
2023-01-06T13:08:47.683Z,14.47
2023-01-06T13:11:22.258Z,9.43
2023-01-06T13:13:59.157Z,6.90
2023-01-06T13:16:31.644Z,6.83
2023-01-06T13:19:08.740Z,6.50
2023-01-06T13:21:40.527Z,7.67
2023-01-06T13:24:22.721Z,5.10
2023-01-06T13:27:05.644Z,6.77
2023-01-06T13:29:50.032Z,5.43
2023-01-06T13:32:40.340Z,4.27
2023-01-06T13:35:30.692Z,5.17
2023-01-06T13:38:13.003Z,5.17
2023-01-06T13:40:41.376Z,4.50
2023-01-06T13:43:16.584Z,5.47
2023-01-06T13:45:48.021Z,10.93
2023-01-06T13:48:18.501Z,4.17
2023-01-06T13:50:47.205Z,2.47
2023-01-06T13:53:19.289Z,2.93
2023-01-06T13:55:48.265Z,4.10
2023-01-06T13:58:35.852Z,3.97
2023-01-06T14:01:10.941Z,3.50
2023-01-06T14:03:40.254Z,2.60
2023-01-06T14:06:12.683Z,4.40
2023-01-06T14:08:48.187Z,4.37
2023-01-06T14:11:30.769Z,4.00
2023-01-06T14:14:01.565Z,2.67
2023-01-06T14:16:49.904Z,3.00
2023-01-06T14:19:20.064Z,3.97
2023-01-06T14:21:49.385Z,3.80
2023-01-06T14:24:24.570Z,4.37
2023-01-06T14:26:55.737Z,3.07
2023-01-06T14:29:47.307Z,3.53
2023-01-06T14:32:48.579Z,2.97
2023-01-06T14:35:19.912Z,3.80
2023-01-06T14:37:53.051Z,3.87
2023-01-06T14:40:24.434Z,2.93
2023-01-06T14:42:53.964Z,2.67
2023-01-06T14:45:27.064Z,2.70
2023-01-06T14:47:57.630Z,3.50
2023-01-06T14:50:41.883Z,3.67
2023-01-06T14:53:20.422Z,2.50
2023-01-06T14:55:53.852Z,2.30
2023-01-06T14:58:30.410Z,2.93
2023-01-06T15:01:03.028Z,3.73
2023-01-06T15:03:32.596Z,4.17
2023-01-06T15:06:18.359Z,3.30
2023-01-06T15:08:46.800Z,2.23
2023-01-06T15:11:22.851Z,2.53
2023-01-06T15:13:51.613Z,3.43
2023-01-06T15:16:24.649Z,2.57
2023-01-06T15:18:54.950Z,3.87
2023-01-06T15:21:25.768Z,4.70
2023-01-06T15:23:55.444Z,4.73
2023-01-06T15:26:27.554Z,23.20
2023-01-06T15:29:06.791Z,4.00
2023-01-06T15:31:36.187Z,5.33
2023-01-06T15:34:08.452Z,6.37
2023-01-06T15:36:39.006Z,4.87
2023-01-06T15:39:07.219Z,2.40
2023-01-06T15:41:36.964Z,3.83
2023-01-06T15:44:23.097Z,2.80
2023-01-06T15:46:54.319Z,2.90
2023-01-06T15:49:29.144Z,4.53
2023-01-06T15:52:05.794Z,2.10
2023-01-06T15:54:38.952Z,4.00
2023-01-06T15:57:17.222Z,2.67
2023-01-06T15:59:54.658Z,2.50
2023-01-06T16:02:26.332Z,7.07
2023-01-06T16:04:54.414Z,4.13
2023-01-06T16:07:35.775Z,6.77
2023-01-06T16:10:04.044Z,2.60
2023-01-06T16:12:32.294Z,3.77
2023-01-06T16:15:36.496Z,3.20
2023-01-06T16:18:04.797Z,3.77
2023-01-06T16:20:33.024Z,3.50
2023-01-06T16:23:03.699Z,3.43
2023-01-06T16:25:33.484Z,11.73
2023-01-06T16:28:03.309Z,4.07
2023-01-06T16:30:35.839Z,3.20
2023-01-06T16:33:05.017Z,2.80
2023-01-06T16:35:34.349Z,3.87
2023-01-06T16:38:06.678Z,4.67
2023-01-06T16:40:34.777Z,4.03
2023-01-06T16:43:03.797Z,3.57
2023-01-06T16:45:36.767Z,7.70
2023-01-06T16:48:06.282Z,5.30
2023-01-06T16:50:40.607Z,3.80
2023-01-06T16:53:16.320Z,2.73
2023-01-06T16:55:44.654Z,5.43
2023-01-06T16:58:18.527Z,8.40
2023-01-06T17:00:56.754Z,3.90
2023-01-06T17:03:26.271Z,3.70
2023-01-06T17:05:55.093Z,3.80
2023-01-06T17:08:30.657Z,7.03
2023-01-06T17:11:01.905Z,6.83
2023-01-06T17:13:36.442Z,6.03
2023-01-06T17:16:15.054Z,9.43
2023-01-06T17:18:50.030Z,7.57
2023-01-06T17:21:19.706Z,4.57
2023-01-06T17:23:51.327Z,3.23
2023-01-06T17:26:22.228Z,26.63
2023-01-06T17:28:50.934Z,10.77
2023-01-06T17:31:32.693Z,5.93
2023-01-06T17:34:10.548Z,7.30
2023-01-06T17:36:42.883Z,5.13
2023-01-06T17:39:17.144Z,3.97
2023-01-06T17:41:45.340Z,4.07
2023-01-06T17:44:21.249Z,4.47
2023-01-06T17:46:49.593Z,4.23
2023-01-06T17:49:48.096Z,4.97
2023-01-06T17:52:18.231Z,4.10
2023-01-06T17:55:13.449Z,4.33
2023-01-06T17:57:47.000Z,3.87
2023-01-06T18:00:25.289Z,5.63
2023-01-06T18:03:00.922Z,5.73
2023-01-06T18:06:22.149Z,4.00
2023-01-06T18:08:55.472Z,5.10
2023-01-06T18:11:29.284Z,4.27
2023-01-06T18:14:01.586Z,4.97
2023-01-06T18:16:32.849Z,4.93
2023-01-06T18:19:18.199Z,5.20
2023-01-06T18:21:46.461Z,6.40
2023-01-06T18:24:17.955Z,9.13
2023-01-06T18:26:51.708Z,6.87
2023-01-06T18:29:21.108Z,8.17
2023-01-06T18:31:51.605Z,5.73
2023-01-06T18:34:27.975Z,6.63
2023-01-06T18:36:57.901Z,4.40
2023-01-06T18:39:29.131Z,6.57
2023-01-06T18:42:29.031Z,14.70
2023-01-06T18:45:19.470Z,30.47
2023-01-06T18:47:51.656Z,30.93
2023-01-06T18:50:33.092Z,12.23
2023-01-06T18:53:05.428Z,8.07
2023-01-06T18:55:38.150Z,5.47
2023-01-06T18:58:23.002Z,8.80
2023-01-06T19:00:54.902Z,6.00
2023-01-06T19:03:33.626Z,8.23
2023-01-06T19:06:37.827Z,8.53
2023-01-06T19:09:17.864Z,26.27
2023-01-06T19:11:47.459Z,4.60
2023-01-06T19:14:19.790Z,7.87
2023-01-06T19:16:52.719Z,6.57
2023-01-06T19:19:25.586Z,6.83
2023-01-06T19:21:57.729Z,6.83
2023-01-06T19:24:52.266Z,36.80
2023-01-06T19:27:39.578Z,6.30
2023-01-06T19:30:39.185Z,7.30
2023-01-06T19:33:36.721Z,11.40
2023-01-06T19:36:30.076Z,14.13
2023-01-06T19:38:59.428Z,8.33
2023-01-06T19:41:28.998Z,7.20
2023-01-06T19:44:04.729Z,6.00
2023-01-06T19:46:38.616Z,6.20
2023-01-06T19:49:16.325Z,6.20
2023-01-06T19:51:45.273Z,6.87
2023-01-06T19:54:26.083Z,6.77
2023-01-06T19:56:57.568Z,7.20
2023-01-06T19:59:29.425Z,7.10
2023-01-06T20:02:04.182Z,10.47
2023-01-06T20:04:34.758Z,6.47
2023-01-06T20:07:04.802Z,6.97
2023-01-06T20:09:35.990Z,9.33
2023-01-06T20:12:04.329Z,7.30
2023-01-06T20:14:32.755Z,7.47
2023-01-06T20:17:02.370Z,10.43
2023-01-06T20:19:30.798Z,11.20
2023-01-06T20:22:01.629Z,32.37
2023-01-06T20:24:30.748Z,18.50
2023-01-06T20:26:58.923Z,20.57
2023-01-06T20:29:27.184Z,13.23
2023-01-06T20:31:55.511Z,9.33
2023-01-06T20:34:27.541Z,12.47
2023-01-06T20:36:55.968Z,10.97
2023-01-06T20:39:24.115Z,8.00
2023-01-06T20:41:52.501Z,16.30
2023-01-06T20:44:21.018Z,9.43
2023-01-06T20:46:49.152Z,8.50
2023-01-06T20:49:21.362Z,8.27
2023-01-06T20:51:51.168Z,7.30
2023-01-06T20:54:20.870Z,9.67
2023-01-06T20:56:49.320Z,8.83
2023-01-06T20:59:17.428Z,9.47
2023-01-06T21:01:46.295Z,8.60
2023-01-06T21:04:14.972Z,9.03
2023-01-06T21:06:43.299Z,8.93
2023-01-06T21:09:18.453Z,10.23
2023-01-06T21:11:46.553Z,9.27
2023-01-06T21:14:16.918Z,9.87
2023-01-06T21:16:46.255Z,11.87
2023-01-06T21:19:15.101Z,10.03
2023-01-06T21:21:43.415Z,10.93
2023-01-06T21:24:13.184Z,12.10
2023-01-06T21:26:42.516Z,10.97
2023-01-06T21:29:10.613Z,11.67
2023-01-06T21:31:40.427Z,11.80
2023-01-06T21:34:08.871Z,11.33
2023-01-06T21:36:37.872Z,11.23
2023-01-06T21:39:07.139Z,12.63
2023-01-06T21:41:54.625Z,11.43
2023-01-06T21:44:22.838Z,13.53
2023-01-06T21:46:52.112Z,11.90
2023-01-06T21:49:20.596Z,11.63
2023-01-06T21:51:49.187Z,11.50
2023-01-06T21:54:17.324Z,11.00
2023-01-06T21:56:47.924Z,12.20
2023-01-06T21:59:16.133Z,12.77
2023-01-06T22:01:44.569Z,12.50
2023-01-06T22:04:12.661Z,12.83
2023-01-06T22:06:42.505Z,14.63
2023-01-06T22:09:12.963Z,13.20
2023-01-06T22:11:43.683Z,20.80
2023-01-06T22:14:14.798Z,22.53
2023-01-06T22:16:44.809Z,11.73
2023-01-06T22:19:13.671Z,27.67
2023-01-06T22:21:43.257Z,44.20
2023-01-06T22:24:12.541Z,18.03
2023-01-06T22:26:40.995Z,15.40
2023-01-06T22:29:09.021Z,36.57
2023-01-06T22:31:38.833Z,76.10
2023-01-06T22:34:08.206Z,32.37
2023-01-06T22:36:38.082Z,15.77
2023-01-06T22:39:07.045Z,34.93
2023-01-06T22:41:35.546Z,12.03
2023-01-06T22:44:03.601Z,26.13
2023-01-06T22:46:31.994Z,12.27
2023-01-06T22:49:01.990Z,29.83
2023-01-06T22:51:30.264Z,20.37
2023-01-06T22:53:58.971Z,12.90
2023-01-06T22:56:28.206Z,12.67
2023-01-06T22:58:56.693Z,22.23
2023-01-06T23:01:25.272Z,89.23
2023-01-06T23:03:53.620Z,21.40
2023-01-06T23:06:25.127Z,12.63
2023-01-06T23:09:00.124Z,19.03
2023-01-06T23:11:31.310Z,50.37
2023-01-06T23:14:00.407Z,44.83
2023-01-06T23:16:30.097Z,46.00
2023-01-06T23:18:58.704Z,58.63
2023-01-06T23:21:35.556Z,40.80
2023-01-06T23:24:04.081Z,100.30
2023-01-06T23:26:34.933Z,22.23
2023-01-06T23:29:03.752Z,28.40
2023-01-06T23:31:36.583Z,12.90
2023-01-06T23:34:07.204Z,24.17
2023-01-06T23:36:38.474Z,25.60
2023-01-06T23:39:08.747Z,68.70
2023-01-06T23:41:38.078Z,48.17
2023-01-06T23:44:06.899Z,15.73
2023-01-06T23:46:36.980Z,55.10
2023-01-06T23:49:07.577Z,12.20
2023-01-06T23:51:37.145Z,11.53
2023-01-06T23:54:06.226Z,27.87
2023-01-06T23:56:36.451Z,9.37
2023-01-06T23:59:05.741Z,9.03
